Coila, New York
Current Conditions -  °F | °C
As of 5:54 PM on Saturday 25 Oct 2014 (Local Time) from KDDH Reporting Station
Overcast Overcast  
Wind Chill: 57°   Ceiling: 7500
Heat Index: 57°   Visibility: 10mi
Dew Point: 44°   Wind: 3mph
Humidity: 62%   Direction: 150°SSE
Pressure: 29.58"   Gusts: NA
Location:  43.0594°N, 73.3734°W
Report Text: KDDH 252154Z AUTO 15003KT 10SM BKN075 OVC110 14/07 A2958 RMK AO2 SLP018 T01390067
Loading
Personal Weather Stations






























Interactive Weather Map
Tropical Storm Tracking
New forecast layout! Learn more

10-Day Weather Forecast

Advertisements
Track Severe Weather on mobile